createdAt,value
2022-08-21T00:01:47.338Z,11.59
2022-08-21T00:04:33.200Z,11.72
2022-08-21T00:07:20.154Z,11.81
2022-08-21T00:10:06.506Z,11.86
2022-08-21T00:12:52.354Z,11.88
2022-08-21T00:15:40.239Z,11.92
2022-08-21T00:18:26.597Z,11.96
2022-08-21T00:21:14.655Z,12.05
2022-08-21T00:23:59.997Z,12.09
2022-08-21T00:26:46.245Z,12.15
2022-08-21T00:29:31.769Z,12.18
2022-08-21T00:32:26.462Z,12.18
2022-08-21T00:35:18.452Z,12.16
2022-08-21T00:38:07.400Z,12.08
2022-08-21T00:40:58.186Z,12.07
2022-08-21T00:43:46.085Z,12.08
2022-08-21T00:46:31.789Z,12.12
2022-08-21T00:49:17.083Z,12.19
2022-08-21T00:52:02.826Z,12.21
2022-08-21T00:54:51.319Z,12.21
2022-08-21T00:57:45.804Z,12.15
2022-08-21T01:00:36.505Z,12.07
2022-08-21T01:03:25.434Z,11.98
2022-08-21T01:06:11.823Z,11.85
2022-08-21T01:08:57.499Z,11.72
2022-08-21T01:11:46.558Z,11.62
2022-08-21T01:14:33.196Z,11.55
2022-08-21T01:17:21.828Z,11.47
2022-08-21T01:20:09.711Z,11.39
2022-08-21T01:22:55.152Z,11.29
2022-08-21T01:25:40.911Z,11.28
2022-08-21T01:28:27.790Z,11.22
2022-08-21T01:31:16.056Z,11.13
2022-08-21T01:34:02.497Z,11.07
2022-08-21T01:36:49.134Z,10.94
2022-08-21T01:39:35.970Z,10.86
2022-08-21T01:42:21.846Z,10.73
2022-08-21T01:45:09.038Z,10.65
2022-08-21T01:47:54.736Z,10.60
2022-08-21T01:50:40.433Z,10.55
2022-08-21T01:53:27.880Z,10.40
2022-08-21T01:56:19.472Z,10.34
2022-08-21T01:59:04.869Z,10.26
2022-08-21T02:01:50.513Z,10.29
2022-08-21T02:04:36.455Z,10.23
2022-08-21T02:07:22.398Z,10.17
2022-08-21T02:10:10.221Z,10.16
2022-08-21T02:12:57.656Z,10.14
2022-08-21T02:15:43.473Z,10.06
2022-08-21T02:18:28.818Z,10.05
2022-08-21T02:21:14.106Z,10.00
2022-08-21T02:23:59.791Z,10.01
2022-08-21T02:26:45.296Z,9.97
2022-08-21T02:29:30.777Z,9.96
2022-08-21T02:32:16.012Z,9.97
2022-08-21T02:35:01.478Z,9.88
2022-08-21T02:37:53.510Z,9.87
2022-08-21T02:40:43.920Z,9.89
2022-08-21T02:43:33.757Z,9.88
2022-08-21T02:46:22.152Z,9.79
2022-08-21T02:49:07.429Z,9.77
2022-08-21T02:51:52.943Z,9.74
2022-08-21T02:54:38.305Z,9.69
2022-08-21T02:57:23.834Z,9.60
2022-08-21T03:00:11.886Z,9.50
2022-08-21T03:03:00.069Z,9.35
2022-08-21T03:05:45.747Z,9.31
2022-08-21T03:08:31.706Z,9.27
2022-08-21T03:11:17.010Z,9.24
2022-08-21T03:14:02.293Z,9.18
2022-08-21T03:16:47.395Z,9.07
2022-08-21T03:19:32.677Z,9.03
2022-08-21T03:22:18.526Z,9.01
2022-08-21T03:25:06.720Z,8.99
2022-08-21T03:27:58.309Z,9.00
2022-08-21T03:30:47.134Z,8.98
2022-08-21T03:33:33.492Z,9.02
2022-08-21T03:36:19.561Z,9.09
2022-08-21T03:39:05.284Z,9.04
2022-08-21T03:41:51.040Z,9.21
2022-08-21T03:44:36.628Z,9.20
2022-08-21T03:47:23.157Z,9.21
2022-08-21T03:50:08.879Z,9.23
2022-08-21T03:52:54.615Z,9.23
2022-08-21T03:55:40.429Z,9.21
2022-08-21T03:58:28.348Z,9.24
2022-08-21T04:01:13.725Z,9.25
2022-08-21T04:03:58.959Z,9.21
2022-08-21T04:06:44.653Z,9.13
2022-08-21T04:09:31.474Z,9.13
2022-08-21T04:12:16.951Z,9.13
2022-08-21T04:15:03.076Z,9.12
2022-08-21T04:17:49.487Z,9.14
2022-08-21T04:20:34.906Z,9.04
2022-08-21T04:23:23.672Z,9.03
2022-08-21T04:26:11.345Z,8.99
2022-08-21T04:28:58.537Z,8.92
2022-08-21T04:31:44.771Z,8.84
2022-08-21T04:34:30.417Z,8.82
2022-08-21T04:37:19.349Z,8.74
2022-08-21T04:40:05.952Z,8.72
2022-08-21T04:43:00.996Z,8.72
2022-08-21T04:45:49.002Z,8.66
2022-08-21T04:48:34.681Z,8.63
2022-08-21T04:51:46.599Z,8.60
2022-08-21T04:54:32.355Z,8.53
2022-08-21T04:57:17.733Z,8.47
2022-08-21T05:00:08.452Z,8.40
2022-08-21T05:03:01.918Z,8.39
2022-08-21T05:05:47.613Z,8.43
2022-08-21T05:08:33.046Z,8.43
2022-08-21T05:11:19.192Z,8.31
2022-08-21T05:14:04.900Z,8.12
2022-08-21T05:16:50.593Z,7.99
2022-08-21T05:19:36.971Z,7.94
2022-08-21T05:22:25.362Z,7.89
2022-08-21T05:25:11.638Z,7.80
2022-08-21T05:28:00.794Z,7.70
2022-08-21T05:30:46.922Z,7.68
2022-08-21T05:33:32.243Z,7.63
2022-08-21T05:36:21.305Z,7.56
2022-08-21T05:39:06.847Z,7.50
2022-08-21T05:41:52.131Z,7.51
2022-08-21T05:44:37.999Z,7.64
2022-08-21T05:47:23.972Z,7.79
2022-08-21T05:50:09.542Z,7.93
2022-08-21T05:52:56.670Z,8.10
2022-08-21T05:55:53.257Z,8.28
2022-08-21T05:58:39.001Z,8.38
2022-08-21T06:01:24.302Z,8.54
2022-08-21T06:04:10.387Z,8.63
2022-08-21T06:06:56.124Z,8.76
2022-08-21T06:09:42.383Z,8.91
2022-08-21T06:12:28.269Z,9.03
2022-08-21T06:15:13.812Z,9.11
2022-08-21T06:17:59.218Z,9.20
2022-08-21T06:20:45.542Z,9.29
2022-08-21T06:23:33.420Z,9.37
2022-08-21T06:26:19.248Z,9.48
2022-08-21T06:29:04.713Z,9.54
2022-08-21T06:31:52.332Z,9.63
2022-08-21T06:34:39.484Z,9.74
2022-08-21T06:37:25.251Z,9.83
2022-08-21T06:40:12.870Z,9.93
2022-08-21T06:43:01.405Z,9.98
2022-08-21T06:45:47.036Z,10.00
2022-08-21T06:48:34.209Z,10.09
2022-08-21T06:51:20.146Z,10.16
2022-08-21T06:54:05.624Z,10.19
2022-08-21T06:56:51.189Z,10.24
2022-08-21T06:59:36.738Z,10.30
2022-08-21T07:02:22.217Z,10.35
2022-08-21T07:05:17.687Z,10.42
2022-08-21T07:08:04.328Z,10.48
2022-08-21T07:10:50.287Z,10.55
2022-08-21T07:13:35.795Z,10.61
2022-08-21T07:16:22.656Z,10.67
2022-08-21T07:19:07.995Z,10.77
2022-08-21T07:21:59.349Z,10.85
2022-08-21T07:24:44.678Z,10.89
2022-08-21T07:27:30.153Z,10.94
2022-08-21T07:30:15.954Z,10.97
2022-08-21T07:33:02.067Z,11.00
2022-08-21T07:35:47.467Z,11.08
2022-08-21T07:38:33.089Z,11.12
2022-08-21T07:41:24.902Z,11.17
2022-08-21T07:44:10.428Z,11.25
2022-08-21T07:46:58.662Z,11.33
2022-08-21T07:49:44.117Z,11.47
2022-08-21T07:52:31.242Z,11.53
2022-08-21T07:55:20.594Z,11.58
2022-08-21T07:58:05.973Z,11.64
2022-08-21T08:00:51.419Z,11.70
2022-08-21T08:03:37.319Z,11.76
2022-08-21T08:06:22.978Z,11.88
2022-08-21T08:09:08.886Z,11.97
2022-08-21T08:11:54.548Z,12.03
2022-08-21T08:14:40.497Z,12.08
2022-08-21T08:17:26.907Z,12.16
2022-08-21T08:20:14.378Z,12.30
2022-08-21T08:23:00.591Z,12.41
2022-08-21T08:25:46.166Z,12.50
2022-08-21T08:28:32.979Z,12.58
2022-08-21T08:31:18.365Z,12.71
2022-08-21T08:34:04.661Z,12.84
2022-08-21T08:36:50.232Z,12.98
2022-08-21T08:39:39.130Z,13.19
2022-08-21T08:42:32.693Z,13.29
2022-08-21T08:45:24.963Z,13.36
2022-08-21T08:48:14.740Z,13.45
2022-08-21T08:51:03.800Z,13.48
2022-08-21T08:54:03.959Z,13.49
2022-08-21T08:56:52.082Z,13.49
2022-08-21T08:59:53.650Z,13.52
2022-08-21T09:02:41.282Z,13.54
2022-08-21T09:05:30.357Z,13.58
2022-08-21T09:08:50.643Z,13.62
2022-08-21T09:11:51.577Z,13.70
2022-08-21T09:14:59.004Z,13.82
2022-08-21T09:17:53.659Z,13.88
2022-08-21T09:20:53.527Z,14.02
2022-08-21T09:24:14.905Z,14.25
2022-08-21T09:27:11.951Z,14.41
2022-08-21T09:29:58.999Z,14.62
2022-08-21T09:32:45.158Z,14.68
2022-08-21T09:35:32.397Z,14.82
2022-08-21T09:38:28.022Z,14.95
2022-08-21T09:41:13.770Z,15.09
2022-08-21T09:43:59.495Z,15.14
2022-08-21T09:46:52.288Z,15.05
2022-08-21T09:49:40.875Z,14.99
2022-08-21T09:52:26.772Z,15.00
2022-08-21T09:55:39.842Z,15.00
2022-08-21T09:58:38.347Z,15.01
2022-08-21T10:01:26.648Z,15.05
2022-08-21T10:04:12.725Z,15.12
2022-08-21T10:07:13.737Z,15.19
2022-08-21T10:10:08.313Z,15.32
2022-08-21T10:13:21.132Z,15.45
2022-08-21T10:16:42.174Z,15.54
2022-08-21T10:19:44.705Z,15.69
2022-08-21T10:22:33.337Z,15.92
2022-08-21T10:25:31.069Z,16.19
2022-08-21T10:28:32.509Z,16.32
2022-08-21T10:31:45.796Z,16.47
2022-08-21T10:34:42.840Z,16.47
2022-08-21T10:38:05.582Z,16.36
2022-08-21T10:41:03.112Z,16.26
2022-08-21T10:43:51.648Z,16.24
2022-08-21T10:46:58.262Z,16.15
2022-08-21T10:49:49.919Z,16.07
2022-08-21T10:53:04.447Z,15.98
2022-08-21T10:55:58.144Z,15.82
2022-08-21T10:59:01.310Z,15.83
2022-08-21T11:01:55.779Z,15.91
2022-08-21T11:04:53.560Z,15.90
2022-08-21T11:07:56.110Z,16.02
2022-08-21T11:10:59.494Z,16.01
2022-08-21T11:13:52.374Z,15.94
2022-08-21T11:16:42.492Z,15.82
2022-08-21T11:19:51.051Z,15.87
2022-08-21T11:22:54.551Z,15.97
2022-08-21T11:26:08.835Z,16.15
2022-08-21T11:29:05.877Z,16.23
2022-08-21T11:32:06.703Z,16.26
2022-08-21T11:35:13.461Z,16.35
2022-08-21T11:37:59.416Z,16.44
2022-08-21T11:41:09.533Z,16.61
2022-08-21T11:44:23.410Z,16.75
2022-08-21T11:47:19.980Z,16.78
2022-08-21T11:50:29.710Z,16.94
2022-08-21T11:53:39.372Z,17.19
2022-08-21T11:56:31.744Z,17.27
2022-08-21T11:59:40.655Z,17.42
2022-08-21T12:02:33.033Z,17.77
2022-08-21T12:05:34.895Z,18.16
2022-08-21T12:08:39.277Z,18.37
2022-08-21T12:11:31.102Z,18.78
2022-08-21T12:14:19.653Z,19.06
2022-08-21T12:17:12.196Z,19.46
2022-08-21T12:20:24.888Z,19.56
2022-08-21T12:23:13.453Z,19.38
2022-08-21T12:26:04.518Z,19.51
2022-08-21T12:28:50.591Z,19.83
2022-08-21T12:31:36.065Z,20.13
2022-08-21T12:34:27.519Z,20.42
2022-08-21T12:37:22.854Z,20.23
2022-08-21T12:40:29.252Z,20.47
2022-08-21T12:43:19.631Z,20.57
2022-08-21T12:46:05.635Z,20.65
2022-08-21T12:48:57.652Z,20.99
2022-08-21T12:51:58.131Z,21.34
2022-08-21T12:54:45.565Z,21.59
2022-08-21T12:57:31.867Z,21.72
2022-08-21T13:00:23.750Z,21.70
2022-08-21T13:03:09.631Z,21.77
2022-08-21T13:05:55.450Z,21.88
2022-08-21T13:08:45.490Z,22.16
2022-08-21T13:11:33.946Z,22.20
2022-08-21T13:14:49.675Z,21.94
2022-08-21T13:17:39.622Z,21.93
2022-08-21T13:20:34.267Z,22.13
2022-08-21T13:23:27.811Z,22.00
2022-08-21T13:26:22.933Z,22.04
2022-08-21T13:29:12.341Z,22.23
2022-08-21T13:32:02.783Z,22.43
2022-08-21T13:34:48.831Z,22.64
2022-08-21T13:37:42.625Z,22.65
2022-08-21T13:40:33.727Z,22.81
2022-08-21T13:43:23.146Z,22.84
2022-08-21T13:46:11.822Z,22.82
2022-08-21T13:48:59.514Z,22.66
2022-08-21T13:51:47.744Z,22.56
2022-08-21T13:54:40.775Z,22.40
2022-08-21T13:57:36.232Z,22.20
2022-08-21T14:00:31.389Z,21.86
2022-08-21T14:03:31.178Z,21.45
2022-08-21T14:06:23.927Z,21.02
2022-08-21T14:09:43.199Z,20.98
2022-08-21T14:12:50.054Z,21.06
2022-08-21T14:15:36.600Z,21.26
2022-08-21T14:18:22.313Z,21.31
2022-08-21T14:21:10.204Z,21.44
2022-08-21T14:24:31.613Z,21.33
2022-08-21T14:27:21.396Z,21.01
2022-08-21T14:30:18.582Z,20.92
2022-08-21T14:33:08.974Z,20.85
2022-08-21T14:35:55.111Z,20.88
2022-08-21T14:38:41.867Z,20.82
2022-08-21T14:41:30.223Z,20.78
2022-08-21T14:44:20.179Z,20.65
2022-08-21T14:47:06.011Z,20.64
2022-08-21T14:49:54.825Z,20.54
2022-08-21T14:52:41.796Z,20.25
2022-08-21T14:55:27.954Z,20.21
2022-08-21T14:58:13.302Z,19.88
2022-08-21T15:01:00.267Z,19.77
2022-08-21T15:03:47.063Z,19.68
2022-08-21T15:06:32.734Z,19.56
2022-08-21T15:09:18.117Z,19.63
2022-08-21T15:12:05.213Z,19.66
2022-08-21T15:14:51.057Z,19.80
2022-08-21T15:17:37.286Z,19.76
2022-08-21T15:20:22.867Z,20.19
2022-08-21T15:23:14.435Z,20.85
2022-08-21T15:26:00.667Z,21.45
2022-08-21T15:28:47.926Z,21.97
2022-08-21T15:31:33.268Z,22.32
2022-08-21T15:34:18.955Z,22.64
2022-08-21T15:37:06.505Z,22.79
2022-08-21T15:39:54.277Z,22.85
2022-08-21T15:42:42.881Z,22.90
2022-08-21T15:45:30.038Z,23.07
2022-08-21T15:48:15.624Z,23.28
2022-08-21T15:51:01.273Z,23.43
2022-08-21T15:53:47.626Z,23.25
2022-08-21T15:56:39.411Z,23.22
2022-08-21T15:59:26.338Z,23.01
2022-08-21T16:02:22.756Z,22.97
2022-08-21T16:05:08.684Z,22.84
2022-08-21T16:07:54.843Z,22.97
2022-08-21T16:10:42.356Z,22.90
2022-08-21T16:13:33.510Z,23.03
2022-08-21T16:16:22.429Z,22.98
2022-08-21T16:19:08.874Z,22.87
2022-08-21T16:21:54.433Z,22.77
2022-08-21T16:24:41.347Z,22.69
2022-08-21T16:27:27.665Z,22.47
2022-08-21T16:30:17.013Z,22.40
2022-08-21T16:33:04.543Z,22.48
2022-08-21T16:35:50.086Z,22.57
2022-08-21T16:38:38.317Z,22.61
2022-08-21T16:41:33.431Z,22.37
2022-08-21T16:44:21.664Z,22.27
2022-08-21T16:47:11.197Z,22.20
2022-08-21T16:50:17.789Z,22.31
2022-08-21T16:53:04.383Z,22.50
2022-08-21T16:55:51.899Z,22.66
2022-08-21T16:58:41.076Z,23.01
2022-08-21T17:01:30.048Z,23.21
2022-08-21T17:04:15.960Z,23.26
2022-08-21T17:07:01.791Z,23.27
2022-08-21T17:09:47.287Z,23.36
2022-08-21T17:12:33.744Z,23.25
2022-08-21T17:15:22.336Z,23.14
2022-08-21T17:18:12.186Z,23.34
2022-08-21T17:20:57.583Z,23.51
2022-08-21T17:23:43.344Z,23.58
2022-08-21T17:26:28.956Z,23.47
2022-08-21T17:29:16.396Z,23.26
2022-08-21T17:32:03.541Z,23.19
2022-08-21T17:34:49.162Z,23.13
2022-08-21T17:37:35.008Z,23.02
2022-08-21T17:40:20.919Z,22.64
2022-08-21T17:43:12.902Z,22.13
2022-08-21T17:45:59.394Z,21.65
2022-08-21T17:48:47.543Z,21.25
2022-08-21T17:51:33.446Z,20.97
2022-08-21T17:54:18.883Z,20.68
2022-08-21T17:57:06.045Z,20.66
2022-08-21T17:59:54.110Z,20.42
2022-08-21T18:02:44.867Z,20.14
2022-08-21T18:05:30.860Z,19.91
2022-08-21T18:08:17.044Z,19.57
2022-08-21T18:11:02.380Z,19.24
2022-08-21T18:13:47.884Z,18.93
2022-08-21T18:16:34.953Z,18.72
2022-08-21T18:19:25.259Z,18.49
2022-08-21T18:22:10.962Z,18.31
2022-08-21T18:24:56.849Z,18.31
2022-08-21T18:27:45.964Z,18.42
2022-08-21T18:30:34.567Z,18.26
2022-08-21T18:33:21.666Z,18.06
2022-08-21T18:36:07.415Z,17.97
2022-08-21T18:39:13.648Z,17.77
2022-08-21T18:42:07.976Z,17.58
2022-08-21T18:44:57.163Z,17.41
2022-08-21T18:47:50.256Z,17.20
2022-08-21T18:50:39.342Z,17.06
2022-08-21T18:53:27.820Z,16.91
2022-08-21T18:59:20.170Z,16.60
2022-08-21T19:02:08.715Z,16.44
2022-08-21T19:04:54.939Z,16.28
2022-08-21T19:07:41.134Z,16.11
2022-08-21T19:10:29.538Z,15.88
2022-08-21T19:13:20.693Z,15.76
2022-08-21T19:16:09.635Z,15.56
2022-08-21T19:18:56.099Z,15.42
2022-08-21T19:21:43.928Z,15.23
2022-08-21T19:24:29.851Z,15.15
2022-08-21T19:27:18.298Z,14.98
2022-08-21T19:30:06.359Z,14.89
2022-08-21T19:32:51.849Z,14.78
2022-08-21T19:35:37.724Z,14.67
2022-08-21T19:38:23.592Z,14.58
2022-08-21T19:41:12.436Z,14.48
2022-08-21T19:44:02.255Z,14.39
2022-08-21T19:46:49.937Z,14.32
2022-08-21T19:49:43.873Z,14.23
2022-08-21T19:52:29.508Z,14.21
2022-08-21T19:55:16.268Z,14.15
2022-08-21T19:58:06.544Z,14.07
2022-08-21T20:00:52.127Z,14.06
2022-08-21T20:03:37.948Z,14.09
2022-08-21T20:06:28.989Z,14.03
2022-08-21T20:09:17.111Z,14.09
2022-08-21T20:12:09.893Z,14.14
2022-08-21T20:14:56.357Z,14.16
2022-08-21T20:17:43.021Z,14.19
2022-08-21T20:20:28.709Z,14.20
2022-08-21T20:23:18.637Z,14.19
2022-08-21T20:26:17.150Z,14.17
2022-08-21T20:29:04.814Z,14.14
2022-08-21T20:31:53.109Z,14.16
2022-08-21T20:34:38.748Z,14.15
2022-08-21T20:37:37.108Z,14.14
2022-08-21T20:40:23.172Z,14.13
2022-08-21T20:43:14.131Z,14.13
2022-08-21T20:46:00.912Z,14.13
2022-08-21T20:48:49.522Z,14.17
2022-08-21T20:51:53.306Z,14.22
2022-08-21T20:54:45.896Z,14.21
2022-08-21T20:57:37.045Z,14.25
2022-08-21T21:00:26.232Z,14.27
2022-08-21T21:03:15.371Z,14.29
2022-08-21T21:06:25.540Z,14.32
2022-08-21T21:09:16.360Z,14.31
2022-08-21T21:12:07.292Z,14.33
2022-08-21T21:14:55.752Z,14.34
2022-08-21T21:18:14.050Z,14.36
2022-08-21T21:21:20.644Z,14.38
2022-08-21T21:24:11.058Z,14.38
2022-08-21T21:27:18.457Z,14.42
2022-08-21T21:30:14.898Z,14.44
2022-08-21T21:33:02.004Z,14.42
2022-08-21T21:35:54.172Z,14.42
2022-08-21T21:38:52.981Z,14.41
2022-08-21T21:42:06.433Z,14.41
2022-08-21T21:44:58.041Z,14.43
2022-08-21T21:48:03.590Z,14.40
2022-08-21T21:51:00.885Z,14.44
2022-08-21T21:54:07.242Z,14.42
2022-08-21T21:57:07.952Z,14.39
2022-08-21T22:00:07.019Z,14.40
2022-08-21T22:03:01.135Z,14.41
2022-08-21T22:06:00.455Z,14.39
2022-08-21T22:09:01.860Z,14.39
2022-08-21T22:12:17.468Z,14.39
2022-08-21T22:15:06.980Z,14.39
2022-08-21T22:18:09.338Z,14.39
2022-08-21T22:21:16.851Z,14.39
2022-08-21T22:24:16.225Z,14.40
2022-08-21T22:27:12.895Z,14.39
2022-08-21T22:30:06.412Z,14.38
2022-08-21T22:32:52.870Z,14.37
2022-08-21T22:35:39.447Z,14.37
2022-08-21T22:38:28.146Z,14.36
2022-08-21T22:41:23.791Z,14.32
2022-08-21T22:44:27.464Z,14.31
2022-08-21T22:47:21.602Z,14.33
2022-08-21T22:50:25.839Z,14.31
2022-08-21T22:53:11.435Z,14.28
2022-08-21T22:56:00.488Z,14.24
2022-08-21T22:58:58.939Z,14.23
2022-08-21T23:01:45.264Z,14.22
2022-08-21T23:04:30.875Z,14.21
2022-08-21T23:07:43.637Z,14.21
2022-08-21T23:10:40.754Z,14.22
2022-08-21T23:13:30.747Z,14.25
2022-08-21T23:16:53.576Z,14.25
2022-08-21T23:19:58.031Z,14.25
2022-08-21T23:23:03.192Z,14.25
2022-08-21T23:25:58.439Z,14.23
2022-08-21T23:29:07.844Z,14.23
2022-08-21T23:32:25.184Z,14.23
2022-08-21T23:35:51.228Z,14.23
2022-08-21T23:38:56.031Z,14.26
2022-08-21T23:41:58.950Z,14.25
2022-08-21T23:45:14.026Z,14.29
2022-08-21T23:48:30.796Z,14.27
2022-08-21T23:51:55.940Z,14.29
2022-08-21T23:54:56.796Z,14.28
2022-08-21T23:58:00.194Z,14.30
